200620Z 00000KT CAVOK 02/02 Q1012 RWY 14 CLEAR AND DRY 51-100 PCT BA GOOD=

RRB 200530Z 2006/2015 VRB02KT CAVOK=

Aktuell METAR/TAF ESNU/UME

Källa: Luftfartsverket (aro.lfv.se)